Terminal Aerodrome Forecast
Issued by NWS Sterling, VA

Home | Current Version | Previous Version | Text Only | Print | Product List | Glossary On
Versions: 1 2 3 4 5 6 7 8 9 10 11 12 13 14 15 16 17 18 19 20 21 22 23 24
000
FTUS41 KLWX 022100 AAA
TAFBWI
TAF AMD
KBWI 022104Z 0221/0324 22008KT P6SM VCTS BKN050CB
      TEMPO 0221/0222 VRB25KT 2SM TSRA OVC015CB
     FM030200 28007KT P6SM VCTS BKN050CB BKN090
     FM030400 29006KT P6SM BKN090
     FM030800 31006KT P6SM SCT090=

USA.gov is the U.S. government's official web portal to all federal, state and local government web resources and services.